createdAt,value
2018-09-15T00:02:29.420Z,99644.59
2018-09-15T00:04:58.801Z,99642.16
2018-09-15T00:07:28.201Z,99647.64
2018-09-15T00:09:57.880Z,99652.58
2018-09-15T00:12:27.212Z,99646.04
2018-09-15T00:14:56.390Z,99644.95
2018-09-15T00:17:25.783Z,99637.87
2018-09-15T00:19:55.183Z,99640.38
2018-09-15T00:22:24.120Z,99636.00
2018-09-15T00:24:53.428Z,99630.83
2018-09-15T00:27:22.826Z,99626.45
2018-09-15T00:29:51.900Z,99631.39
2018-09-15T00:32:20.915Z,99634.98
2018-09-15T00:34:50.435Z,99635.50
2018-09-15T00:37:19.516Z,99631.11
2018-09-15T00:39:48.953Z,99634.67
2018-09-15T00:42:18.116Z,99628.91
2018-09-15T00:44:47.235Z,99627.27
2018-09-15T00:47:16.677Z,99629.51
2018-09-15T00:49:46.133Z,99630.61
2018-09-15T00:52:15.107Z,99626.80
2018-09-15T00:54:44.516Z,99620.78
2018-09-15T00:57:13.724Z,99621.33
2018-09-15T00:59:43.169Z,99616.63
2018-09-15T01:02:12.380Z,99616.67
2018-09-15T01:04:41.683Z,99616.98
2018-09-15T01:07:17.201Z,99616.17
2018-09-15T01:09:46.419Z,99609.55
2018-09-15T01:12:15.735Z,99607.95
2018-09-15T01:14:45.208Z,99613.42
2018-09-15T01:17:14.374Z,99618.36
2018-09-15T01:19:43.705Z,99613.94
2018-09-15T01:22:12.705Z,99617.22
2018-09-15T01:24:42.453Z,99617.77
2018-09-15T01:27:11.501Z,99615.34
2018-09-15T01:29:41.133Z,99623.02
2018-09-15T01:32:10.395Z,99626.63
2018-09-15T01:34:39.462Z,99626.66
2018-09-15T01:37:08.846Z,99624.24
2018-09-15T01:39:38.059Z,99627.84
2018-09-15T01:42:08.916Z,99629.27
2018-09-15T01:44:38.154Z,99632.31
2018-09-15T01:47:07.244Z,99627.42
2018-09-15T01:49:36.422Z,99623.36
2018-09-15T01:52:05.829Z,99623.43
2018-09-15T01:54:35.344Z,99618.27
2018-09-15T01:57:04.457Z,99633.37
2018-09-15T01:59:33.583Z,99627.66
2018-09-15T02:02:02.775Z,99632.89
2018-09-15T02:04:31.815Z,99625.27
2018-09-15T02:07:01.070Z,99628.04
2018-09-15T02:09:30.142Z,99626.70
2018-09-15T02:12:02.244Z,99626.19
2018-09-15T02:14:31.302Z,99624.00
2018-09-15T02:17:00.239Z,99619.66
2018-09-15T02:19:29.347Z,99627.34
2018-09-15T02:21:58.705Z,99622.70
2018-09-15T02:24:27.963Z,99623.55
2018-09-15T02:26:57.145Z,99626.28
2018-09-15T02:29:26.852Z,99629.56
2018-09-15T02:31:56.162Z,99630.39
2018-09-15T02:34:25.170Z,99630.36
2018-09-15T02:36:55.115Z,99634.16
2018-09-15T02:39:24.291Z,99633.85
2018-09-15T02:41:53.495Z,99629.75
2018-09-15T02:44:22.706Z,99639.02
2018-09-15T02:46:52.054Z,99639.02
2018-09-15T02:49:21.434Z,99638.75
2018-09-15T02:51:50.809Z,99635.16
2018-09-15T02:54:19.863Z,99634.61
2018-09-15T02:56:48.914Z,99635.70
2018-09-15T02:59:18.085Z,99624.45
2018-09-15T03:01:47.309Z,99635.64
2018-09-15T03:04:16.485Z,99631.53
2018-09-15T03:06:45.669Z,99630.23
2018-09-15T03:09:14.762Z,99631.66
2018-09-15T03:11:44.298Z,99634.19
2018-09-15T03:14:13.899Z,99633.67
2018-09-15T03:16:43.098Z,99640.52
2018-09-15T03:19:12.208Z,99649.27
2018-09-15T03:21:41.908Z,99639.70
2018-09-15T03:24:11.132Z,99646.30
2018-09-15T03:26:40.307Z,99648.21
2018-09-15T03:29:09.291Z,99652.31
2018-09-15T03:31:38.525Z,99663.53
2018-09-15T03:34:07.884Z,99673.95
2018-09-15T03:36:37.134Z,99671.82
2018-09-15T03:39:08.626Z,99678.69
2018-09-15T03:41:37.709Z,99676.52
2018-09-15T03:44:07.128Z,99681.45
2018-09-15T03:46:36.166Z,99678.47
2018-09-15T03:49:05.362Z,99673.81
2018-09-15T03:51:34.461Z,99677.39
2018-09-15T03:54:03.603Z,99679.85
2018-09-15T03:56:33.089Z,99682.05
2018-09-15T03:59:02.215Z,99679.58
2018-09-15T04:01:31.346Z,99679.03
2018-09-15T04:04:00.453Z,99685.30
2018-09-15T04:06:29.744Z,99686.92
2018-09-15T04:08:58.755Z,99684.45
2018-09-15T04:11:28.310Z,99686.38
2018-09-15T04:13:57.973Z,99674.94
2018-09-15T04:16:27.369Z,99683.06
2018-09-15T04:18:56.404Z,99685.50
2018-09-15T04:21:25.453Z,99688.48
2018-09-15T04:23:54.502Z,99691.75
2018-09-15T04:26:23.702Z,99695.55
2018-09-15T04:28:52.644Z,99698.83
2018-09-15T04:31:21.894Z,99710.87
2018-09-15T04:33:51.709Z,99710.34
2018-09-15T04:36:21.264Z,99714.19
2018-09-15T04:38:50.338Z,99712.23
2018-09-15T04:41:19.461Z,99713.88
2018-09-15T04:43:49.062Z,99717.16
2018-09-15T04:46:18.262Z,99719.91
2018-09-15T04:48:47.167Z,99717.98
2018-09-15T04:51:16.711Z,99714.95
2018-09-15T04:53:45.782Z,99714.65
2018-09-15T04:56:16.052Z,99721.19
2018-09-15T04:58:45.104Z,99731.84
2018-09-15T05:01:14.468Z,99729.38
2018-09-15T05:03:43.939Z,99731.30
2018-09-15T05:06:13.104Z,99741.99
2018-09-15T05:08:42.234Z,99740.95
2018-09-15T05:11:11.520Z,99734.41
2018-09-15T05:13:40.881Z,99743.19
2018-09-15T05:16:10.297Z,99751.11
2018-09-15T05:18:39.890Z,99751.44
2018-09-15T05:21:09.903Z,99755.84
2018-09-15T05:23:40.121Z,99762.67
2018-09-15T05:26:09.207Z,99769.56
2018-09-15T05:28:38.419Z,99773.14
2018-09-15T05:31:07.512Z,99772.37
2018-09-15T05:33:36.581Z,99765.56
2018-09-15T05:36:05.711Z,99760.36
2018-09-15T05:38:34.685Z,99771.81
2018-09-15T05:41:03.790Z,99768.28
2018-09-15T05:43:32.756Z,99766.36
2018-09-15T05:46:01.725Z,99762.80
2018-09-15T05:48:30.917Z,99773.48
2018-09-15T05:51:00.463Z,99777.85
2018-09-15T05:53:29.599Z,99776.48
2018-09-15T05:55:58.633Z,99770.20
2018-09-15T05:58:27.898Z,99771.27
2018-09-15T06:00:57.533Z,99785.79
2018-09-15T06:03:27.400Z,99784.14
2018-09-15T06:05:56.553Z,99790.16
2018-09-15T06:08:25.797Z,99799.73
2018-09-15T06:10:54.871Z,99798.38
2018-09-15T06:13:24.198Z,99793.70
2018-09-15T06:15:53.258Z,99802.19
2018-09-15T06:18:22.496Z,99799.17
2018-09-15T06:20:51.628Z,99802.44
2018-09-15T06:23:20.883Z,99804.06
2018-09-15T06:25:50.401Z,99805.69
2018-09-15T06:28:19.479Z,99802.66
2018-09-15T06:30:48.667Z,99800.73
2018-09-15T06:33:18.013Z,99799.36
2018-09-15T06:35:47.003Z,99803.44
2018-09-15T06:38:16.056Z,99794.66
2018-09-15T06:40:45.067Z,99799.00
2018-09-15T06:43:14.195Z,99794.33
2018-09-15T06:45:44.207Z,99801.13
2018-09-15T06:48:14.306Z,99801.06
2018-09-15T06:50:43.989Z,99800.47
2018-09-15T06:53:13.550Z,99806.45
2018-09-15T06:55:43.818Z,99802.06
2018-09-15T06:58:13.306Z,99809.73
2018-09-15T07:00:43.378Z,99814.39
2018-09-15T07:03:13.083Z,99820.42
2018-09-15T07:05:42.303Z,99822.28
2018-09-15T07:08:11.374Z,99822.28
2018-09-15T07:10:40.653Z,99821.98
2018-09-15T07:13:09.925Z,99814.28
2018-09-15T07:15:38.963Z,99816.15
2018-09-15T07:18:08.514Z,99810.67
2018-09-15T07:20:37.519Z,99813.35
2018-09-15T07:23:06.847Z,99819.90
2018-09-15T07:25:35.960Z,99816.27
2018-09-15T07:28:05.266Z,99825.07
2018-09-15T07:30:34.233Z,99830.80
2018-09-15T07:33:03.411Z,99830.80
2018-09-15T07:35:32.554Z,99838.67
2018-09-15T07:38:01.728Z,99844.44
2018-09-15T07:40:31.188Z,99837.83
2018-09-15T07:43:00.908Z,99837.22
2018-09-15T07:45:30.163Z,99837.73
2018-09-15T07:47:59.165Z,99842.87
2018-09-15T07:50:28.283Z,99841.45
2018-09-15T07:52:57.488Z,99839.23
2018-09-15T07:55:26.540Z,99843.30
2018-09-15T07:57:55.817Z,99832.02
2018-09-15T08:00:25.770Z,99835.82
2018-09-15T08:02:55.741Z,99837.94
2018-09-15T08:05:24.870Z,99839.00
2018-09-15T08:07:54.032Z,99839.77
2018-09-15T08:10:23.184Z,99834.77
2018-09-15T08:12:52.343Z,99839.92
2018-09-15T08:15:21.507Z,99840.12
2018-09-15T08:17:50.542Z,99838.92
2018-09-15T08:20:19.563Z,99843.23
2018-09-15T08:22:48.823Z,99845.61
2018-09-15T08:25:17.908Z,99852.70
2018-09-15T08:27:46.843Z,99847.16
2018-09-15T08:30:16.194Z,99847.66
2018-09-15T08:32:45.709Z,99842.92
2018-09-15T08:35:15.518Z,99847.49
2018-09-15T08:37:44.618Z,99851.51
2018-09-15T08:40:13.992Z,99862.66
2018-09-15T08:42:49.360Z,99862.30
2018-09-15T08:45:19.644Z,99861.20
2018-09-15T08:47:50.098Z,99862.51
2018-09-15T08:50:19.885Z,99868.49
2018-09-15T08:52:48.981Z,99878.57
2018-09-15T08:55:17.984Z,99871.13
2018-09-15T08:57:46.966Z,99871.37
2018-09-15T09:00:16.118Z,99867.45
2018-09-15T09:02:45.965Z,99864.87
2018-09-15T09:05:15.139Z,99854.87
2018-09-15T09:07:44.116Z,99864.98
2018-09-15T09:10:13.105Z,99869.83
2018-09-15T09:12:42.483Z,99867.56
2018-09-15T09:15:11.608Z,99867.78
2018-09-15T09:17:40.857Z,99869.31
2018-09-15T09:20:10.161Z,99870.91
2018-09-15T09:22:39.506Z,99863.74
2018-09-15T09:25:08.894Z,99868.95
2018-09-15T09:27:37.962Z,99868.34
2018-09-15T09:30:07.238Z,99866.07
2018-09-15T09:32:36.407Z,99868.48
2018-09-15T09:35:05.540Z,99865.67
2018-09-15T09:37:34.738Z,99875.52
2018-09-15T09:40:04.130Z,99882.34
2018-09-15T09:42:33.381Z,99883.48
2018-09-15T09:45:02.611Z,99891.48
2018-09-15T09:47:31.788Z,99894.61
2018-09-15T09:50:00.971Z,99892.98
2018-09-15T09:52:30.895Z,99891.41
2018-09-15T09:54:59.928Z,99893.92
2018-09-15T09:57:29.229Z,99896.69
2018-09-15T09:59:58.251Z,99893.94
2018-09-15T10:02:27.387Z,99890.36
2018-09-15T10:04:56.529Z,99899.44
2018-09-15T10:07:25.791Z,99893.98
2018-09-15T10:09:54.979Z,99904.12
2018-09-15T10:12:24.035Z,99901.34
2018-09-15T10:14:53.336Z,99899.92
2018-09-15T10:17:22.535Z,99896.56
2018-09-15T10:19:51.708Z,99896.55
2018-09-15T10:22:20.933Z,99896.75
2018-09-15T10:24:50.324Z,99900.53
2018-09-15T10:27:19.819Z,99905.93
2018-09-15T10:29:48.981Z,99887.97
2018-09-15T10:32:18.210Z,99895.83
2018-09-15T10:34:47.920Z,99894.37
2018-09-15T10:37:17.157Z,99903.42
2018-09-15T10:39:46.574Z,99897.57
2018-09-15T10:42:15.650Z,99901.06
2018-09-15T10:44:45.179Z,99904.84
2018-09-15T10:47:14.717Z,99901.20
2018-09-15T10:49:44.644Z,99902.84
2018-09-15T10:52:13.569Z,99901.47
2018-09-15T10:54:42.788Z,99902.73
2018-09-15T10:57:11.959Z,99892.52
2018-09-15T10:59:41.153Z,99897.08
2018-09-15T11:02:14.910Z,99884.13
2018-09-15T11:04:45.760Z,99891.55
2018-09-15T11:07:15.616Z,99895.91
2018-09-15T11:09:45.193Z,99897.88
2018-09-15T11:12:14.333Z,99898.66
2018-09-15T11:14:43.621Z,99896.79
2018-09-15T11:17:12.615Z,99895.67
2018-09-15T11:19:41.908Z,99894.44
2018-09-15T11:22:10.803Z,99890.02
2018-09-15T11:24:39.932Z,99895.17
2018-09-15T11:27:09.048Z,99895.81
2018-09-15T11:29:38.431Z,99889.91
2018-09-15T11:32:07.945Z,99901.83
2018-09-15T11:34:37.506Z,99890.21
2018-09-15T11:37:06.812Z,99893.13
2018-09-15T11:39:36.324Z,99889.13
2018-09-15T11:42:05.422Z,99887.59
2018-09-15T11:44:34.589Z,99884.66
2018-09-15T11:47:04.005Z,99880.42
2018-09-15T11:49:32.998Z,99888.33
2018-09-15T11:52:02.145Z,99883.83
2018-09-15T11:54:31.239Z,99884.84
2018-09-15T11:57:00.209Z,99889.17
2018-09-15T11:59:29.296Z,99880.34
2018-09-15T12:01:58.568Z,99877.51
2018-09-15T12:04:28.278Z,99884.11
2018-09-15T12:06:57.454Z,99885.48
2018-09-15T12:09:26.597Z,99888.47
2018-09-15T12:11:55.577Z,99886.23
2018-09-15T12:14:24.688Z,99884.30
2018-09-15T12:16:53.907Z,99881.27
2018-09-15T12:19:23.242Z,99881.77
2018-09-15T12:21:52.621Z,99875.88
2018-09-15T12:24:22.632Z,99875.20
2018-09-15T12:26:51.700Z,99875.36
2018-09-15T12:29:20.766Z,99872.78
2018-09-15T12:31:49.899Z,99875.17
2018-09-15T12:34:19.096Z,99875.12
2018-09-15T12:36:48.082Z,99881.39
2018-09-15T12:39:18.021Z,99874.75
2018-09-15T12:41:47.240Z,99876.88
2018-09-15T12:44:16.340Z,99878.74
2018-09-15T12:46:45.633Z,99870.46
2018-09-15T12:49:14.696Z,99872.10
2018-09-15T12:51:44.269Z,99875.16
2018-09-15T12:54:13.280Z,99870.20
2018-09-15T12:56:42.520Z,99865.58
2018-09-15T12:59:12.060Z,99873.30
2018-09-15T13:01:41.283Z,99865.09
2018-09-15T13:04:10.762Z,99866.22
2018-09-15T13:06:39.875Z,99851.91
2018-09-15T13:09:11.714Z,99854.28
2018-09-15T13:11:41.536Z,99856.41
2018-09-15T13:14:10.669Z,99862.19
2018-09-15T13:16:39.589Z,99857.92
2018-09-15T13:19:08.609Z,99853.72
2018-09-15T13:21:37.670Z,99860.61
2018-09-15T13:24:06.885Z,99857.03
2018-09-15T13:26:36.048Z,99853.64
2018-09-15T13:29:05.134Z,99849.89
2018-09-15T13:31:35.023Z,99856.16
2018-09-15T13:34:04.193Z,99853.13
2018-09-15T13:36:33.567Z,99850.38
2018-09-15T13:39:02.847Z,99850.63
2018-09-15T13:41:32.533Z,99850.63
2018-09-15T13:44:01.588Z,99851.11
2018-09-15T13:46:30.654Z,99853.95
2018-09-15T13:48:59.796Z,99844.11
2018-09-15T13:51:28.868Z,99852.03
2018-09-15T13:53:58.628Z,99846.07
2018-09-15T13:56:27.822Z,99846.02
2018-09-15T13:58:57.086Z,99841.69
2018-09-15T14:01:26.268Z,99843.63
2018-09-15T14:03:55.550Z,99842.06
2018-09-15T14:06:24.624Z,99849.52
2018-09-15T14:08:53.774Z,99848.47
2018-09-15T14:11:23.000Z,99847.77
2018-09-15T14:13:52.074Z,99842.97
2018-09-15T14:16:21.544Z,99844.72
2018-09-15T14:18:50.992Z,99847.06
2018-09-15T14:21:20.232Z,99842.74
2018-09-15T14:23:49.175Z,99842.85
2018-09-15T14:26:18.577Z,99845.91
2018-09-15T14:28:47.623Z,99852.31
2018-09-15T14:31:16.877Z,99852.38
2018-09-15T14:33:46.354Z,99856.55
2018-09-15T14:36:16.025Z,99856.37
2018-09-15T14:38:45.380Z,99849.84
2018-09-15T14:41:14.489Z,99852.41
2018-09-15T14:43:43.820Z,99851.03
2018-09-15T14:46:12.709Z,99851.59
2018-09-15T14:48:41.947Z,99849.98
2018-09-15T14:51:11.151Z,99854.67
2018-09-15T14:53:40.736Z,99848.97
2018-09-15T14:56:11.001Z,99848.45
2018-09-15T14:58:40.372Z,99851.83
2018-09-15T15:01:10.267Z,99857.41
2018-09-15T15:03:40.015Z,99853.64
2018-09-15T15:06:09.291Z,99852.88
2018-09-15T15:08:38.768Z,99853.19
2018-09-15T15:11:08.486Z,99852.98
2018-09-15T15:13:37.654Z,99846.66
2018-09-15T15:16:07.094Z,99853.73
2018-09-15T15:18:36.251Z,99849.17
2018-09-15T15:21:05.551Z,99842.38
2018-09-15T15:23:35.331Z,99846.89
2018-09-15T15:26:04.578Z,99845.70
2018-09-15T15:28:33.704Z,99843.70
2018-09-15T15:31:03.052Z,99850.48
2018-09-15T15:33:32.319Z,99849.56
2018-09-15T15:36:01.553Z,99844.98
2018-09-15T15:38:30.858Z,99847.06
2018-09-15T15:41:00.380Z,99848.37
2018-09-15T15:43:29.765Z,99844.23
2018-09-15T15:45:59.480Z,99847.81
2018-09-15T15:48:29.404Z,99846.17
2018-09-15T15:50:58.808Z,99844.05
2018-09-15T15:53:28.230Z,99847.44
2018-09-15T15:55:57.771Z,99849.45
2018-09-15T15:58:26.783Z,99848.11
2018-09-15T16:00:55.939Z,99852.88
2018-09-15T16:03:24.846Z,99856.82
2018-09-15T16:05:54.526Z,99856.07
2018-09-15T16:08:23.628Z,99860.57
2018-09-15T16:10:53.545Z,99858.44
2018-09-15T16:13:22.619Z,99854.15
2018-09-15T16:15:52.386Z,99853.77
2018-09-15T16:18:22.211Z,99856.33
2018-09-15T16:20:51.327Z,99858.06
2018-09-15T16:23:20.652Z,99859.88
2018-09-15T16:25:49.804Z,99864.04
2018-09-15T16:28:19.511Z,99862.70
2018-09-15T16:30:49.425Z,99867.16
2018-09-15T16:33:18.541Z,99864.70
2018-09-15T16:35:47.984Z,99870.50
2018-09-15T16:38:17.155Z,99868.89
2018-09-15T16:40:46.392Z,99865.61
2018-09-15T16:43:15.753Z,99868.98
2018-09-15T16:45:44.836Z,99872.63
2018-09-15T16:48:13.763Z,99876.50
2018-09-15T16:50:42.857Z,99872.66
2018-09-15T16:53:11.964Z,99874.09
2018-09-15T16:55:41.908Z,99869.21
2018-09-15T16:58:11.903Z,99870.06
2018-09-15T17:00:41.160Z,99876.95
2018-09-15T17:03:10.381Z,99873.44
2018-09-15T17:05:39.442Z,99871.30
2018-09-15T17:08:08.722Z,99870.48
2018-09-15T17:10:37.849Z,99875.17
2018-09-15T17:13:06.942Z,99871.33
2018-09-15T17:15:36.287Z,99874.67
2018-09-15T17:18:05.256Z,99878.80
2018-09-15T17:20:34.318Z,99881.29
2018-09-15T17:23:03.529Z,99880.73
2018-09-15T17:25:39.316Z,99886.80
2018-09-15T17:28:08.532Z,99895.33
2018-09-15T17:30:37.503Z,99897.81
2018-09-15T17:33:07.065Z,99889.02
2018-09-15T17:35:36.118Z,99893.42
2018-09-15T17:38:05.290Z,99894.53
2018-09-15T17:40:35.189Z,99902.03
2018-09-15T17:43:05.176Z,99902.85
2018-09-15T17:45:34.734Z,99900.72
2018-09-15T17:48:05.206Z,99908.70
2018-09-15T17:50:34.835Z,99915.66
2018-09-15T17:53:04.199Z,99913.52
2018-09-15T17:55:33.661Z,99921.50
2018-09-15T17:58:02.712Z,99933.69
2018-09-15T18:00:32.013Z,99937.60
2018-09-15T18:03:01.214Z,99951.98
2018-09-15T18:05:30.583Z,99948.42
2018-09-15T18:07:59.591Z,99950.41
2018-09-15T18:10:28.620Z,99953.48
2018-09-15T18:12:57.776Z,99949.94
2018-09-15T18:15:27.708Z,99952.98
2018-09-15T18:17:56.671Z,99960.70
2018-09-15T18:20:26.161Z,99960.70
2018-09-15T18:22:55.199Z,99967.90
2018-09-15T18:25:24.199Z,99967.34
2018-09-15T18:27:53.770Z,99967.90
2018-09-15T18:30:22.923Z,99976.70
2018-09-15T18:32:51.872Z,99976.16
2018-09-15T18:35:21.172Z,99978.64
2018-09-15T18:37:50.440Z,99979.75
2018-09-15T18:40:19.622Z,99981.13
2018-09-15T18:42:48.745Z,99980.06
2018-09-15T18:45:17.960Z,99984.20
2018-09-15T18:47:47.849Z,99971.94
2018-09-15T18:50:16.970Z,99986.41
2018-09-15T18:52:46.122Z,99996.87
2018-09-15T18:55:15.458Z,99994.98
2018-09-15T18:57:45.113Z,99997.16
2018-09-15T19:00:14.301Z,100002.42
2018-09-15T19:02:43.548Z,100002.66
2018-09-15T19:05:12.687Z,100011.50
2018-09-15T19:07:41.895Z,99999.67
2018-09-15T19:10:11.310Z,100007.92
2018-09-15T19:12:40.580Z,100020.03
2018-09-15T19:15:16.078Z,100017.84
2018-09-15T19:17:45.667Z,100016.78
2018-09-15T19:20:15.127Z,100021.47
2018-09-15T19:22:44.955Z,100022.02
2018-09-15T19:25:14.037Z,100026.70
2018-09-15T19:27:43.146Z,100030.00
2018-09-15T19:30:12.319Z,100036.61
2018-09-15T19:32:41.322Z,100037.75
2018-09-15T19:35:12.049Z,100038.86
2018-09-15T19:37:41.353Z,100035.57
2018-09-15T19:40:10.383Z,100034.53
2018-09-15T19:42:40.174Z,100036.22
2018-09-15T19:45:09.277Z,100038.70
2018-09-15T19:47:38.263Z,100044.25
2018-09-15T19:50:07.367Z,100042.34
2018-09-15T19:52:36.714Z,100040.19
2018-09-15T19:55:06.162Z,100041.05
2018-09-15T19:57:42.090Z,100046.02
2018-09-15T20:00:11.118Z,100049.09
2018-09-15T20:02:40.221Z,100041.17
2018-09-15T20:05:09.432Z,100044.57
2018-09-15T20:07:39.162Z,100047.37
2018-09-15T20:10:08.121Z,100044.94
2018-09-15T20:12:37.199Z,100046.64
2018-09-15T20:15:06.648Z,100046.70
2018-09-15T20:17:34.787Z,100050.31
2018-09-15T20:20:02.361Z,100047.55
2018-09-15T20:22:31.581Z,100053.91
2018-09-15T20:25:00.546Z,100051.17
2018-09-15T20:27:29.721Z,100060.56
2018-09-15T20:29:58.836Z,100056.24
2018-09-15T20:32:27.961Z,100059.31
2018-09-15T20:34:57.373Z,100057.75
2018-09-15T20:37:26.768Z,100072.62
2018-09-15T20:39:55.827Z,100065.25
2018-09-15T20:42:24.965Z,100070.80
2018-09-15T20:44:54.102Z,100074.41
2018-09-15T20:47:23.162Z,100073.66
2018-09-15T20:49:52.997Z,100072.59
2018-09-15T20:52:23.014Z,100074.55
2018-09-15T20:54:52.437Z,100076.48
2018-09-15T20:57:21.454Z,100085.03
2018-09-15T20:59:50.675Z,100082.56
2018-09-15T21:02:19.720Z,100085.34
2018-09-15T21:04:49.005Z,100084.25
2018-09-15T21:07:18.169Z,100085.14
2018-09-15T21:09:47.331Z,100086.23
2018-09-15T21:12:16.577Z,100077.76
2018-09-15T21:14:46.006Z,100081.61
2018-09-15T21:17:15.048Z,100079.69
2018-09-15T21:19:44.148Z,100079.41
2018-09-15T21:22:13.235Z,100086.86
2018-09-15T21:24:42.263Z,100091.52
2018-09-15T21:27:11.883Z,100091.52
2018-09-15T21:29:40.722Z,100097.59
2018-09-15T21:32:09.721Z,100098.97
2018-09-15T21:34:38.997Z,100106.07
2018-09-15T21:37:07.915Z,100100.86
2018-09-15T21:39:37.652Z,100108.23
2018-09-15T21:42:06.752Z,100109.06
2018-09-15T21:44:35.891Z,100114.00
2018-09-15T21:47:05.741Z,100118.67
2018-09-15T21:49:35.210Z,100113.17
2018-09-15T21:52:04.242Z,100110.43
2018-09-15T21:54:33.257Z,100113.45
2018-09-15T21:57:02.767Z,100110.70
2018-09-15T21:59:31.840Z,100109.88
2018-09-15T22:02:01.384Z,100119.77
2018-09-15T22:04:31.002Z,100123.88
2018-09-15T22:07:00.196Z,100122.48
2018-09-15T22:09:29.377Z,100128.24
2018-09-15T22:11:59.465Z,100129.31
2018-09-15T22:14:28.400Z,100133.19
2018-09-15T22:16:57.765Z,100135.11
2018-09-15T22:19:26.838Z,100136.48
2018-09-15T22:21:56.658Z,100135.38
2018-09-15T22:24:25.798Z,100130.98
2018-09-15T22:26:54.834Z,100133.19
2018-09-15T22:29:23.953Z,100129.89
2018-09-15T22:31:54.976Z,100132.09
2018-09-15T22:34:24.288Z,100134.28
2018-09-15T22:36:53.499Z,100135.38
2018-09-15T22:39:22.714Z,100146.92
2018-09-15T22:41:51.809Z,100147.47
2018-09-15T22:44:20.901Z,100149.66
2018-09-15T22:46:50.380Z,100148.29
2018-09-15T22:49:19.412Z,100140.05
2018-09-15T22:51:48.591Z,100140.59
2018-09-15T22:54:24.357Z,100142.80
2018-09-15T22:56:53.772Z,100143.07
2018-09-15T22:59:23.167Z,100147.70
2018-09-15T23:01:52.300Z,100148.29
2018-09-15T23:04:21.395Z,100145.55
2018-09-15T23:06:50.877Z,100149.11
2018-09-15T23:09:20.074Z,100149.38
2018-09-15T23:11:49.275Z,100146.95
2018-09-15T23:14:18.376Z,100149.14
2018-09-15T23:16:47.641Z,100145.57
2018-09-15T23:19:16.891Z,100151.91
2018-09-15T23:21:46.296Z,100152.49
2018-09-15T23:24:15.478Z,100148.41
2018-09-15T23:26:44.581Z,100142.13
2018-09-15T23:29:13.956Z,100134.70
2018-09-15T23:31:42.929Z,100131.72
2018-09-15T23:34:12.091Z,100138.60
2018-09-15T23:36:41.319Z,100144.97
2018-09-15T23:39:10.409Z,100147.70
2018-09-15T23:41:39.689Z,100151.28
2018-09-15T23:44:09.251Z,100142.22
2018-09-15T23:46:39.030Z,100148.02
2018-09-15T23:49:08.183Z,100148.83
2018-09-15T23:51:37.586Z,100145.84
2018-09-15T23:54:06.747Z,100146.14
2018-09-15T23:56:36.107Z,100143.40
2018-09-15T23:59:05.888Z,100148.33
